Time;durP1;ratioP1;P1;durP2;ratioP2;P2;SDS_P1;SDS_P2;PMS_P1;PMS_P2;Temp;Humidity;BMP_temperature;BMP_pressure;BME280_temperature;BME280_humidity;BME280_pressure;Samples;Min_cycle;Max_cycle;Signal;HPM_P1;HPM_P2
2022/01/27 00:02:03;;;;;;;43.25;17.23;;;-0.90;35.60;;;;;;7354821;19;21300;-62
2022/01/27 00:04:37;;;;;;;38.58;16.00;;;-0.90;36.00;;;;;;7359144;19;20042;-62
2022/01/27 00:07:08;;;;;;;39.10;15.38;;;-0.80;35.80;;;;;;7360510;19;20007;-62
2022/01/27 00:09:49;;;;;;;40.83;17.10;;;-0.90;34.10;;;;;;7359637;19;20027;-62
2022/01/27 00:12:19;;;;;;;39.63;16.83;;;-0.90;35.30;;;;;;7382638;19;20022;-62
2022/01/27 00:15:02;;;;;;;38.63;16.90;;;-0.80;35.30;;;;;;7357470;19;20010;-63
2022/01/27 00:17:33;;;;;;;38.45;15.63;;;-0.80;33.80;;;;;;7359644;19;20007;-63
2022/01/27 00:20:03;;;;;;;42.97;16.80;;;-0.70;34.70;;;;;;7355868;19;20034;-62
2022/01/27 00:22:33;;;;;;;38.05;16.35;;;-0.60;33.90;;;;;;7362678;19;20018;-62
2022/01/27 00:25:06;;;;;;;37.40;17.10;;;-0.70;33.10;;;;;;7355350;19;20014;-62
2022/01/27 00:27:36;;;;;;;32.63;15.73;;;-0.70;33.30;;;;;;7359354;19;20019;-62
2022/01/27 00:30:09;;;;;;;36.42;16.55;;;-0.70;31.90;;;;;;7377689;19;20035;-62
2022/01/27 00:32:39;;;;;;;38.25;15.98;;;-0.70;32.60;;;;;;7359519;19;20023;-62
2022/01/27 00:35:10;;;;;;;35.90;16.25;;;-0.60;32.60;;;;;;7355747;19;20450;-62
2022/01/27 00:37:40;;;;;;;38.83;17.30;;;-0.60;32.20;;;;;;7361372;19;20022;-63
2022/01/27 00:40:14;;;;;;;36.13;15.77;;;-0.60;32.30;;;;;;7353243;19;20389;-62
2022/01/27 00:42:45;;;;;;;38.47;17.88;;;-0.60;30.40;;;;;;7361918;19;20019;-62
2022/01/27 00:45:15;;;;;;;37.55;15.45;;;-0.60;32.30;;;;;;7379923;19;20024;-63
2022/01/27 00:47:45;;;;;;;40.00;17.20;;;-0.60;31.80;;;;;;7358174;19;20016;-63
2022/01/27 00:50:17;;;;;;;35.83;16.77;;;-0.60;31.70;;;;;;7355362;19;20017;-63
2022/01/27 00:52:50;;;;;;;40.30;16.98;;;-0.70;30.00;;;;;;7362259;19;20014;-63
2022/01/27 00:55:25;;;;;;;37.65;17.35;;;-0.70;31.00;;;;;;7359766;19;20010;-63
2022/01/27 00:58:09;;;;;;;38.03;16.17;;;-0.70;31.00;;;;;;7366511;19;20038;-63
2022/01/27 01:00:48;;;;;;;39.33;16.38;;;-0.70;31.00;;;;;;7364237;19;20597;-63
2022/01/27 01:03:25;;;;;;;32.70;15.57;;;-0.70;30.90;;;;;;7389042;19;20103;-63
2022/01/27 01:06:13;;;;;;;36.05;16.45;;;-0.80;33.20;;;;;;7360363;19;20010;-61
2022/01/27 01:17:26;;;;;;;33.05;14.52;;;-0.90;33.80;;;;;;7361467;19;19999;-62
2022/01/27 01:30:57;;;;;;;40.95;15.80;;;-0.80;33.50;;;;;;7365153;19;20014;-62
2022/01/27 01:33:34;;;;;;;40.35;16.23;;;-0.90;33.80;;;;;;7365265;19;20553;-63
2022/01/27 01:36:13;;;;;;;36.35;15.23;;;-0.90;33.20;;;;;;7379981;19;20714;-62
2022/01/27 01:38:43;;;;;;;39.55;15.23;;;-0.90;33.20;;;;;;7365393;19;20034;-63
2022/01/27 01:41:13;;;;;;;40.17;15.82;;;-0.90;32.10;;;;;;7361942;19;20006;-63
2022/01/27 01:43:46;;;;;;;36.42;14.75;;;-0.90;33.20;;;;;;7364144;19;20030;-62
2022/01/27 01:46:16;;;;;;;37.00;15.70;;;-0.90;32.70;;;;;;7361915;19;20015;-63
2022/01/27 01:48:48;;;;;;;35.88;16.20;;;-0.90;32.30;;;;;;7366991;19;20086;-62
2022/01/27 01:51:25;;;;;;;38.92;15.40;;;-0.80;32.90;;;;;;7380883;19;20014;-62
2022/01/27 01:53:56;;;;;;;37.30;15.30;;;-0.80;31.50;;;;;;7363749;19;20501;-62
2022/01/27 01:56:26;;;;;;;37.40;16.27;;;-0.80;31.60;;;;;;7363471;19;20007;-62
2022/01/27 01:58:58;;;;;;;45.60;17.30;;;-0.80;31.50;;;;;;7364167;19;21806;-62
2022/01/27 02:01:29;;;;;;;38.17;16.77;;;-0.80;30.90;;;;;;7361585;19;20375;-62
2022/01/27 02:04:02;;;;;;;36.05;15.95;;;-0.80;29.80;;;;;;7362985;19;20975;-62
2022/01/27 02:06:37;;;;;;;34.00;14.57;;;-0.80;31.20;;;;;;7359411;19;20039;-63
2022/01/27 02:09:19;;;;;;;38.60;16.73;;;-0.80;31.50;;;;;;7387463;19;20274;-62
2022/01/27 02:20:03;;;;;;;40.65;16.27;;;-0.90;30.20;;;;;;7361863;19;20369;-62
2022/01/27 02:22:33;;;;;;;36.08;14.82;;;-0.80;31.10;;;;;;7363282;19;20470;-63
2022/01/27 02:25:03;;;;;;;39.22;16.08;;;-0.80;30.30;;;;;;7357891;19;20500;-62
2022/01/27 02:27:33;;;;;;;38.10;15.15;;;-0.90;30.70;;;;;;7363446;19;20018;-63
2022/01/27 02:30:03;;;;;;;34.78;15.18;;;-0.90;31.00;;;;;;7382811;19;20035;-62
2022/01/27 02:32:33;;;;;;;40.20;16.42;;;-0.80;30.70;;;;;;7363335;19;20011;-62
2022/01/27 02:35:07;;;;;;;35.42;14.98;;;-0.90;29.50;;;;;;7358546;19;20498;-62
2022/01/27 02:37:36;;;;;;;34.85;15.18;;;-0.80;30.10;;;;;;7364535;19;20038;-62
2022/01/27 02:40:08;;;;;;;38.97;15.50;;;-0.80;31.10;;;;;;7358952;19;20009;-63
2022/01/27 02:42:39;;;;;;;42.30;16.48;;;-0.80;29.40;;;;;;7364251;19;20082;-62
2022/01/27 02:45:16;;;;;;;36.70;16.83;;;-0.80;29.40;;;;;;7381341;19;20367;-62
2022/01/27 02:47:46;;;;;;;31.48;15.32;;;-0.70;29.40;;;;;;7362032;19;20027;-63
2022/01/27 02:50:18;;;;;;;37.60;16.23;;;-0.80;28.60;;;;;;7360131;19;20010;-61
2022/01/27 02:52:48;;;;;;;34.22;15.50;;;-0.80;29.40;;;;;;7364599;19;20011;-62
2022/01/27 02:55:18;;;;;;;36.90;15.65;;;-0.70;29.40;;;;;;7356232;19;20014;-62
2022/01/27 02:57:48;;;;;;;36.25;14.63;;;-0.80;28.60;;;;;;7363172;19;20548;-63
2022/01/27 03:00:20;;;;;;;34.08;15.10;;;-0.90;29.30;;;;;;7382863;19;20094;-63
2022/01/27 03:02:54;;;;;;;35.28;14.65;;;-0.90;29.30;;;;;;7361564;19;20012;-63
2022/01/27 03:05:27;;;;;;;36.88;15.65;;;-0.80;29.40;;;;;;7356989;19;20018;-62
2022/01/27 03:08:00;;;;;;;35.47;14.65;;;-0.80;28.10;;;;;;7361943;19;20083;-63
2022/01/27 03:10:32;;;;;;;39.38;16.65;;;-0.80;29.30;;;;;;7357570;19;20011;-62
2022/01/27 03:13:02;;;;;;;35.58;15.73;;;-0.80;28.60;;;;;;7362831;19;20384;-63
2022/01/27 03:15:33;;;;;;;36.53;15.05;;;-0.80;29.30;;;;;;7355114;19;20022;-63
2022/01/27 03:18:03;;;;;;;32.92;14.73;;;-0.80;29.40;;;;;;7378317;19;20006;-62
2022/01/27 03:20:38;;;;;;;43.50;15.98;;;-0.80;28.60;;;;;;7357273;19;20018;-62
2022/01/27 03:23:09;;;;;;;35.10;15.75;;;-0.90;28.50;;;;;;7363994;19;20102;-62
2022/01/27 03:25:40;;;;;;;38.58;16.30;;;-0.90;29.30;;;;;;7355402;19;20024;-62
2022/01/27 03:28:11;;;;;;;39.33;14.90;;;-0.90;29.20;;;;;;7361079;19;20704;-63
2022/01/27 03:30:41;;;;;;;32.63;14.18;;;-1.00;28.90;;;;;;7359081;19;20463;-63
2022/01/27 03:33:11;;;;;;;34.75;14.88;;;-1.00;29.20;;;;;;7384697;19;20020;-62
2022/01/27 03:35:43;;;;;;;34.63;14.85;;;-0.90;29.30;;;;;;7355870;19;20029;-63
2022/01/27 03:38:15;;;;;;;32.83;14.57;;;-0.80;28.50;;;;;;7363290;19;20014;-62
2022/01/27 03:40:45;;;;;;;34.03;14.25;;;-0.80;27.40;;;;;;7355748;19;20091;-61
2022/01/27 03:43:15;;;;;;;35.67;14.65;;;-0.90;28.70;;;;;;7363493;19;20348;-61
2022/01/27 03:45:45;;;;;;;42.40;16.77;;;-0.90;29.20;;;;;;7356263;19;20342;-62
2022/01/27 03:48:16;;;;;;;38.75;15.38;;;-0.90;28.60;;;;;;7381987;19;20018;-62
2022/01/27 03:50:48;;;;;;;39.50;16.02;;;-0.80;28.20;;;;;;7356976;19;20015;-63
2022/01/27 03:53:18;;;;;;;36.70;15.20;;;-0.90;27.70;;;;;;7364633;19;20015;-63
2022/01/27 03:55:50;;;;;;;38.38;16.55;;;-0.90;27.90;;;;;;7354555;19;20506;-62
2022/01/27 03:58:23;;;;;;;37.35;15.27;;;-0.90;29.30;;;;;;7360753;19;20466;-62
2022/01/27 04:00:53;;;;;;;40.08;16.88;;;-0.90;29.00;;;;;;7357592;19;20423;-63
2022/01/27 04:03:24;;;;;;;33.88;15.00;;;-0.80;29.00;;;;;;7368157;19;20017;-63
2022/01/27 04:06:03;;;;;;;38.53;15.45;;;-0.90;27.90;;;;;;7376976;19;20042;-62
2022/01/27 04:08:34;;;;;;;33.30;14.00;;;-0.80;28.00;;;;;;7361622;19;20021;-62
2022/01/27 04:11:04;;;;;;;45.15;18.13;;;-0.90;27.00;;;;;;7353498;19;20031;-62
2022/01/27 04:13:35;;;;;;;35.55;15.93;;;-0.90;28.00;;;;;;7363009;19;20076;-63
2022/01/27 04:16:06;;;;;;;38.75;16.95;;;-0.80;28.10;;;;;;7356803;19;20042;-63
2022/01/27 04:18:35;;;;;;;39.75;15.35;;;-0.70;28.30;;;;;;7380487;19;20036;-63
2022/01/27 04:21:08;;;;;;;40.65;15.65;;;-0.80;27.40;;;;;;7356295;19;20018;-63
2022/01/27 04:23:38;;;;;;;35.95;15.95;;;-0.80;26.90;;;;;;7363433;19;20486;-62
2022/01/27 04:26:08;;;;;;;38.75;15.98;;;-0.70;27.00;;;;;;7353151;19;20379;-62
2022/01/27 04:28:40;;;;;;;36.97;17.80;;;-0.70;26.20;;;;;;7360703;19;20007;-62
2022/01/27 04:31:11;;;;;;;36.25;15.80;;;-0.80;27.30;;;;;;7362782;19;20082;-62
2022/01/27 04:33:41;;;;;;;39.75;16.77;;;-0.80;27.90;;;;;;7365855;19;20042;-63
2022/01/27 04:36:19;;;;;;;36.38;15.02;;;-0.90;27.90;;;;;;7383982;19;20081;-63
2022/01/27 04:38:55;;;;;;;40.60;17.55;;;-0.90;27.70;;;;;;7369799;19;20010;-62
2022/01/27 04:41:33;;;;;;;44.28;18.48;;;-0.90;29.30;;;;;;7361031;19;20019;-63
2022/01/27 04:44:12;;;;;;;41.28;16.23;;;-0.90;29.30;;;;;;7362956;19;20011;-62
2022/01/27 04:46:48;;;;;;;35.47;15.77;;;-0.80;29.40;;;;;;7365899;19;20015;-62
2022/01/27 04:49:19;;;;;;;47.65;18.33;;;-0.70;29.40;;;;;;7366915;19;20010;-61
2022/01/27 04:51:51;;;;;;;47.88;19.00;;;-0.80;28.50;;;;;;7362285;19;20014;-61
2022/01/27 04:54:26;;;;;;;39.00;17.90;;;-0.70;29.00;;;;;;7386934;19;20014;-62
2022/01/27 04:56:59;;;;;;;40.83;17.65;;;-0.80;28.60;;;;;;7363718;19;20018;-61
2022/01/27 04:59:35;;;;;;;42.42;18.20;;;-0.70;28.90;;;;;;7364075;19;20014;-61
2022/01/27 05:02:10;;;;;;;41.72;18.35;;;-0.80;29.00;;;;;;7365497;19;20013;-61
2022/01/27 05:04:43;;;;;;;42.60;17.85;;;-0.80;28.30;;;;;;7361753;19;20605;-61
2022/01/27 05:07:15;;;;;;;40.10;18.10;;;-0.80;29.20;;;;;;7366190;19;20011;-61
2022/01/27 05:09:52;;;;;;;42.97;16.48;;;-0.70;29.40;;;;;;7366004;19;20086;-61
2022/01/27 05:12:31;;;;;;;47.33;18.98;;;-0.80;27.40;;;;;;7389319;19;20015;-62
2022/01/27 05:15:01;;;;;;;43.65;18.10;;;-0.90;29.30;;;;;;7359326;19;20010;-62
2022/01/27 05:17:31;;;;;;;46.08;18.88;;;-0.70;29.40;;;;;;7365246;19;20006;-62
2022/01/27 05:20:01;;;;;;;46.30;18.05;;;-0.80;28.70;;;;;;7363872;19;20080;-62
2022/01/27 05:22:34;;;;;;;48.50;19.90;;;-0.90;29.30;;;;;;7366208;19;20027;-62
2022/01/27 05:25:04;;;;;;;46.58;18.88;;;-0.80;29.70;;;;;;7360091;19;20564;-62
2022/01/27 05:27:34;;;;;;;50.10;20.33;;;-0.70;29.40;;;;;;7388964;19;20014;-62
2022/01/27 05:30:05;;;;;;;53.13;20.13;;;-0.80;29.30;;;;;;7359329;19;20021;-62
2022/01/27 05:32:37;;;;;;;47.53;20.15;;;-0.80;29.70;;;;;;7365982;19;20014;-61
2022/01/27 05:35:07;;;;;;;49.92;20.40;;;-0.80;29.40;;;;;;7362089;19;20007;-61
2022/01/27 05:37:40;;;;;;;47.33;19.80;;;-0.90;30.10;;;;;;7364341;19;20023;-61
2022/01/27 05:40:11;;;;;;;53.78;20.20;;;-0.80;30.40;;;;;;7359134;19;20042;-61
2022/01/27 05:42:41;;;;;;;56.72;21.38;;;-0.80;30.30;;;;;;7366391;19;20035;-61
2022/01/27 05:45:12;;;;;;;57.50;20.23;;;-0.80;30.00;;;;;;7380673;19;20038;-61
2022/01/27 05:47:42;;;;;;;54.88;19.45;;;-0.90;29.60;;;;;;7363973;19;20097;-62
2022/01/27 05:50:12;;;;;;;47.08;18.98;;;-0.90;30.80;;;;;;7360150;19;20436;-62
2022/01/27 05:52:45;;;;;;;49.70;17.95;;;-0.80;30.10;;;;;;7364990;19;20010;-62
2022/01/27 05:55:15;;;;;;;46.50;17.92;;;-1.00;29.60;;;;;;7360393;19;20023;-62
2022/01/27 05:57:45;;;;;;;44.85;19.45;;;-1.00;30.60;;;;;;7365276;19;20025;-62
2022/01/27 06:00:15;;;;;;;51.58;21.50;;;-1.00;30.40;;;;;;7380623;19;20064;-62
2022/01/27 06:02:45;;;;;;;51.75;21.08;;;-0.90;30.30;;;;;;7364327;19;20018;-62
2022/01/27 06:05:15;;;;;;;49.08;19.75;;;-0.90;29.30;;;;;;7360519;19;20014;-61
2022/01/27 06:07:48;;;;;;;54.13;21.15;;;-1.00;29.90;;;;;;7364018;19;20094;-61
2022/01/27 06:10:18;;;;;;;56.78;19.90;;;-0.90;29.90;;;;;;7360434;19;20010;-61
2022/01/27 06:12:50;;;;;;;49.35;21.50;;;-0.90;29.30;;;;;;7365801;19;20018;-61
2022/01/27 06:15:20;;;;;;;54.38;20.10;;;-1.00;29.20;;;;;;7379612;19;20014;-61
2022/01/27 06:17:51;;;;;;;52.85;21.77;;;-0.90;29.30;;;;;;7363852;19;20014;-61
2022/01/27 06:20:22;;;;;;;47.50;20.17;;;-1.00;29.20;;;;;;7361317;19;20018;-61
2022/01/27 06:22:57;;;;;;;52.78;19.38;;;-0.90;29.30;;;;;;7361540;19;20023;-61
2022/01/27 06:25:27;;;;;;;55.63;21.17;;;-1.00;28.50;;;;;;7358405;19;20074;-62
2022/01/27 06:27:57;;;;;;;47.95;19.65;;;-1.00;28.30;;;;;;7365423;19;20404;-62
2022/01/27 06:30:27;;;;;;;49.60;20.17;;;-1.10;27.50;;;;;;7380711;19;20014;-61
2022/01/27 06:32:57;;;;;;;47.00;17.52;;;-1.10;27.10;;;;;;7362589;19;20025;-62
2022/01/27 06:35:27;;;;;;;51.15;19.70;;;-1.10;26.50;;;;;;7358272;19;20608;-60
2022/01/27 06:38:00;;;;;;;41.08;16.38;;;-1.10;26.50;;;;;;7361688;19;20078;-61
2022/01/27 06:40:30;;;;;;;43.65;17.25;;;-1.10;25.70;;;;;;7357527;19;20021;-61
2022/01/27 06:43:00;;;;;;;40.17;15.18;;;-1.10;25.90;;;;;;7364478;19;20439;-61
2022/01/27 06:45:30;;;;;;;42.17;17.52;;;-1.10;24.40;;;;;;7376543;19;20028;-61
2022/01/27 06:48:00;;;;;;;47.72;19.30;;;-1.10;25.20;;;;;;7356252;19;20777;-61
2022/01/27 06:50:31;;;;;;;45.88;18.65;;;-1.10;24.60;;;;;;7357104;19;20085;-62
2022/01/27 06:53:04;;;;;;;44.60;17.67;;;-1.00;24.30;;;;;;7358562;19;20086;-62
2022/01/27 06:55:35;;;;;;;43.58;18.73;;;-1.00;24.70;;;;;;7354868;19;21364;-62
2022/01/27 06:58:05;;;;;;;42.50;18.58;;;-1.00;22.60;;;;;;7363634;19;20011;-61
2022/01/27 07:00:35;;;;;;;49.10;18.67;;;-1.00;22.60;;;;;;7356541;19;20047;-61
2022/01/27 07:03:05;;;;;;;49.35;19.65;;;-1.00;22.80;;;;;;7382087;19;20481;-62
2022/01/27 07:05:35;;;;;;;50.08;19.35;;;-1.00;24.00;;;;;;7357178;19;20018;-62
2022/01/27 07:08:08;;;;;;;56.50;22.25;;;-1.00;25.40;;;;;;7362780;19;20079;-62
2022/01/27 07:10:38;;;;;;;55.22;21.42;;;-1.20;27.70;;;;;;7357054;19;20085;-61
2022/01/27 07:13:08;;;;;;;47.08;19.80;;;-1.10;27.80;;;;;;7362996;19;20106;-61
2022/01/27 07:15:38;;;;;;;52.40;22.63;;;-1.20;27.80;;;;;;7354431;19;20018;-62
2022/01/27 07:18:08;;;;;;;57.58;21.35;;;-1.20;28.10;;;;;;7383814;19;20090;-62
2022/01/27 07:20:38;;;;;;;56.60;20.92;;;-1.10;28.50;;;;;;7359677;19;20007;-62
2022/01/27 07:23:12;;;;;;;62.58;22.50;;;-1.20;28.90;;;;;;7358308;19;20090;-62
2022/01/27 07:25:42;;;;;;;51.75;19.02;;;-1.20;29.10;;;;;;7356484;19;20018;-62
2022/01/27 07:28:11;;;;;;;54.85;21.15;;;-1.30;29.00;;;;;;7363118;19;20023;-62
2022/01/27 07:30:41;;;;;;;56.65;23.30;;;-1.20;29.60;;;;;;7355579;19;20014;-62
2022/01/27 07:33:11;;;;;;;61.85;23.58;;;-1.10;30.00;;;;;;7384623;19;20014;-61
2022/01/27 07:35:41;;;;;;;59.53;23.30;;;-1.00;29.80;;;;;;7353798;19;20061;-61
2022/01/27 07:38:14;;;;;;;51.00;21.77;;;-1.10;27.60;;;;;;7359552;19;20569;-62
2022/01/27 07:40:44;;;;;;;59.65;21.85;;;-1.20;27.50;;;;;;7358046;19;20015;-62
2022/01/27 07:43:17;;;;;;;49.80;19.23;;;-1.30;28.20;;;;;;7362375;19;20011;-61
2022/01/27 07:45:48;;;;;;;51.90;23.27;;;-1.30;29.10;;;;;;7352913;19;20014;-62
2022/01/27 07:48:17;;;;;;;55.53;21.80;;;-1.10;29.10;;;;;;7381794;19;20085;-63
2022/01/27 07:50:48;;;;;;;54.75;21.77;;;-1.30;28.00;;;;;;7357102;19;20014;-62
2022/01/27 07:53:21;;;;;;;60.83;21.52;;;-1.30;30.00;;;;;;7358082;19;20010;-62
2022/01/27 07:55:51;;;;;;;63.83;22.35;;;-1.20;29.20;;;;;;7354495;19;20010;-62
2022/01/27 07:58:21;;;;;;;65.50;22.90;;;-1.30;29.60;;;;;;7361664;19;20486;-60
2022/01/27 08:00:51;;;;;;;64.28;23.88;;;-1.40;30.90;;;;;;7353980;19;20087;-61
2022/01/27 08:03:24;;;;;;;62.35;23.67;;;-1.30;31.60;;;;;;7366924;19;20403;-62
2022/01/27 08:05:54;;;;;;;63.05;22.00;;;-1.30;31.80;;;;;;7382682;19;20036;-62
2022/01/27 08:08:27;;;;;;;64.15;23.55;;;-1.30;31.60;;;;;;7365339;19;20014;-62
2022/01/27 08:10:58;;;;;;;68.53;24.40;;;-1.40;32.70;;;;;;7361831;19;20010;-61
2022/01/27 08:13:28;;;;;;;71.95;24.70;;;-1.30;32.80;;;;;;7369686;19;20085;-61
2022/01/27 08:15:58;;;;;;;62.22;23.38;;;-1.30;32.70;;;;;;7358734;19;20634;-61
2022/01/27 08:18:46;;;;;;;62.58;23.88;;;-1.30;32.20;;;;;;7368523;19;20479;-62
2022/01/27 08:21:16;;;;;;;58.72;22.63;;;-1.20;32.40;;;;;;7385648;19;20046;-62
2022/01/27 08:23:48;;;;;;;56.67;20.55;;;-1.30;32.80;;;;;;7365604;19;20029;-62
2022/01/27 08:26:29;;;;;;;59.88;22.13;;;-1.40;33.20;;;;;;7360535;19;20036;-62
2022/01/27 08:29:09;;;;;;;59.33;21.25;;;-1.30;32.80;;;;;;7370644;19;20027;-62
2022/01/27 08:31:55;;;;;;;50.45;19.45;;;-1.40;31.80;;;;;;7362092;19;20027;-62
2022/01/27 08:34:30;;;;;;;45.25;18.65;;;-1.20;30.30;;;;;;7363664;19;20045;-63
2022/01/27 08:37:02;;;;;;;57.28;21.17;;;-1.20;30.10;;;;;;7364427;19;20010;-61
2022/01/27 08:39:35;;;;;;;53.08;21.35;;;-1.20;29.10;;;;;;7388559;19;20015;-63
2022/01/27 08:42:06;;;;;;;66.85;22.25;;;-1.10;30.40;;;;;;7359227;19;20027;-62
2022/01/27 08:44:36;;;;;;;65.30;23.92;;;-1.10;29.40;;;;;;7364815;19;20010;-62
2022/01/27 08:47:07;;;;;;;66.38;23.20;;;-1.20;30.30;;;;;;7363290;19;20018;-63
2022/01/27 08:49:37;;;;;;;68.50;22.75;;;-1.00;31.40;;;;;;7366152;19;20038;-62
2022/01/27 08:52:08;;;;;;;61.78;23.67;;;-1.00;30.80;;;;;;7361724;19;20490;-63
2022/01/27 08:54:40;;;;;;;63.50;22.00;;;-0.90;30.00;;;;;;7388746;19;20022;-62
2022/01/27 08:57:11;;;;;;;49.45;19.17;;;-0.90;29.20;;;;;;7361220;19;20081;-62
2022/01/27 08:59:41;;;;;;;57.85;20.90;;;-0.90;27.10;;;;;;7366775;19;20033;-62
2022/01/27 09:02:11;;;;;;;48.53;19.88;;;-0.80;27.70;;;;;;7364640;19;20464;-62
2022/01/27 09:04:41;;;;;;;47.10;19.30;;;-0.80;27.40;;;;;;7365616;19;20017;-62
2022/01/27 09:07:11;;;;;;;52.38;19.08;;;-0.80;27.70;;;;;;7358491;19;20007;-62
2022/01/27 09:09:44;;;;;;;48.45;20.25;;;-0.70;26.90;;;;;;7367576;19;20018;-63
2022/01/27 09:12:15;;;;;;;46.60;16.77;;;-0.50;26.30;;;;;;7381622;19;20527;-62
2022/01/27 09:14:45;;;;;;;43.45;17.25;;;-0.50;22.90;;;;;;7365919;19;20011;-62
2022/01/27 09:17:17;;;;;;;42.05;16.25;;;-0.70;22.90;;;;;;7361699;19;20034;-63
2022/01/27 09:19:49;;;;;;;40.35;15.65;;;-0.60;23.40;;;;;;7362513;19;20034;-63
2022/01/27 09:22:19;;;;;;;37.45;14.32;;;-0.40;23.90;;;;;;7362243;19;20014;-62
2022/01/27 09:24:56;;;;;;;32.90;15.10;;;-0.40;21.30;;;;;;7367597;19;20804;-62
2022/01/27 09:27:28;;;;;;;33.80;15.07;;;-0.30;19.70;;;;;;7382384;19;20042;-62
2022/01/27 09:30:00;;;;;;;36.40;14.07;;;-0.10;20.10;;;;;;7362419;19;20025;-62
2022/01/27 09:32:30;;;;;;;37.53;14.73;;;0.00;18.70;;;;;;7364922;19;20556;-63
2022/01/27 09:35:20;;;;;;;34.22;15.73;;;0.00;18.10;;;;;;7361687;19;20010;-62
2022/01/27 09:37:50;;;;;;;36.42;16.13;;;0.00;18.00;;;;;;7362818;19;20038;-63
2022/01/27 09:40:23;;;;;;;35.33;15.15;;;0.00;16.80;;;;;;7364592;19;20095;-63
2022/01/27 09:42:54;;;;;;;34.80;14.43;;;0.10;16.90;;;;;;7361557;19;20026;-63
2022/01/27 09:45:27;;;;;;;34.25;15.45;;;0.20;16.50;;;;;;7369173;19;20019;-61
2022/01/27 09:48:01;;;;;;;32.75;14.00;;;0.40;16.40;;;;;;7385027;19;20134;-62
2022/01/27 09:50:48;;;;;;;31.93;14.33;;;0.40;15.40;;;;;;7357996;19;20421;-62
2022/01/27 09:53:19;;;;;;;30.52;12.93;;;0.60;15.60;;;;;;7360978;19;20040;-62
2022/01/27 09:55:51;;;;;;;33.83;12.60;;;0.50;15.10;;;;;;7362411;19;20477;-62
2022/01/27 09:58:21;;;;;;;26.13;11.32;;;0.40;15.40;;;;;;7364937;19;20014;-62
2022/01/27 10:00:51;;;;;;;27.35;11.82;;;0.70;16.10;;;;;;7359213;19;20029;-62
2022/01/27 10:03:22;;;;;;;26.15;11.82;;;0.70;14.80;;;;;;7385807;19;20015;-62
2022/01/27 10:05:52;;;;;;;25.83;11.38;;;0.80;14.90;;;;;;7360192;19;20607;-62
2022/01/27 10:08:22;;;;;;;28.75;11.88;;;0.90;14.70;;;;;;7361890;19;20018;-62
2022/01/27 10:10:56;;;;;;;28.17;12.07;;;0.90;14.40;;;;;;7361826;19;20086;-62
2022/01/27 10:13:35;;;;;;;27.77;12.73;;;1.00;15.20;;;;;;7361691;19;20056;-62
2022/01/27 10:16:08;;;;;;;28.13;12.10;;;1.10;13.70;;;;;;7357760;19;20394;-66
2022/01/27 10:18:45;;;;;;;25.85;12.13;;;1.20;13.70;;;;;;7363970;19;20504;-62
2022/01/27 10:21:15;;;;;;;28.05;11.63;;;1.20;13.00;;;;;;7378399;19;20014;-62
2022/01/27 10:23:50;;;;;;;52.53;24.67;;;1.30;13.30;;;;;;7362623;19;20078;-62
2022/01/27 10:26:30;;;;;;;25.45;10.73;;;1.30;13.50;;;;;;7359113;19;20018;-61
2022/01/27 10:29:07;;;;;;;23.90;10.48;;;1.40;13.10;;;;;;7361614;19;20060;-62
2022/01/27 10:31:39;;;;;;;25.27;11.63;;;1.30;12.80;;;;;;7355467;19;20028;-63
2022/01/27 10:34:11;;;;;;;22.60;12.00;;;1.40;13.80;;;;;;7366164;19;20010;-63
2022/01/27 10:36:43;;;;;;;22.90;10.50;;;1.50;13.00;;;;;;7360708;19;20024;-63
2022/01/27 10:39:16;;;;;;;31.52;11.55;;;1.60;13.10;;;;;;7383669;19;20070;-63
2022/01/27 10:42:06;;;;;;;30.20;11.43;;;1.50;12.80;;;;;;7356776;19;20082;-62
2022/01/27 10:44:43;;;;;;;19.70;10.05;;;1.50;13.20;;;;;;7365448;19;20021;-62
2022/01/27 10:47:23;;;;;;;20.67;9.63;;;1.60;13.20;;;;;;7358486;19;20467;-63
2022/01/27 10:49:57;;;;;;;20.30;10.20;;;1.60;12.60;;;;;;7358319;19;20013;-63
2022/01/27 10:52:36;;;;;;;17.35;9.00;;;1.70;12.50;;;;;;7360023;19;20341;-64
2022/01/27 10:55:10;;;;;;;21.00;9.23;;;1.80;12.50;;;;;;7357130;19;20018;-62
2022/01/27 10:57:47;;;;;;;22.88;10.65;;;1.80;12.90;;;;;;7366293;19;20078;-63
2022/01/27 11:00:20;;;;;;;23.00;9.63;;;1.80;12.20;;;;;;7380009;19;20010;-62
2022/01/27 11:02:52;;;;;;;18.48;8.68;;;1.90;12.70;;;;;;7364173;19;20011;-62
2022/01/27 11:05:24;;;;;;;18.38;8.95;;;1.90;13.00;;;;;;7353662;19;20466;-62
2022/01/27 11:07:54;;;;;;;19.58;9.45;;;1.90;13.40;;;;;;7359325;19;20010;-62
2022/01/27 11:10:30;;;;;;;20.60;9.95;;;1.80;12.90;;;;;;7358371;19;20003;-62
2022/01/27 11:13:02;;;;;;;17.17;7.97;;;1.90;13.40;;;;;;7358734;19;20028;-61
2022/01/27 11:15:33;;;;;;;16.95;8.05;;;2.00;13.10;;;;;;7379687;19;20015;-63
2022/01/27 11:18:04;;;;;;;20.40;8.90;;;1.90;13.60;;;;;;7359258;19;20014;-63
2022/01/27 11:20:55;;;;;;;23.52;10.23;;;2.00;13.60;;;;;;7353282;19;20040;-62
2022/01/27 11:26:16;;;;;;;19.98;8.98;;;2.10;13.80;;;;;;7356339;19;20489;-61
2022/01/27 11:28:50;;;;;;;21.50;9.90;;;2.10;14.20;;;;;;7362420;19;20010;-62
2022/01/27 11:31:43;;;;;;;18.17;9.10;;;2.10;14.30;;;;;;7351231;19;20041;-62
2022/01/27 11:34:14;;;;;;;21.50;9.73;;;2.20;13.50;;;;;;7359518;19;20107;-62
2022/01/27 11:37:03;;;;;;;21.40;9.57;;;2.10;12.90;;;;;;7354700;19;20051;-62
2022/01/27 11:39:52;;;;;;;17.70;9.25;;;2.10;13.00;;;;;;7379970;19;20073;-62
2022/01/27 11:42:34;;;;;;;20.75;10.07;;;2.20;12.80;;;;;;7255015;19;2005390;-62
2022/01/27 11:45:30;;;;;;;18.42;8.80;;;2.20;12.40;;;;;;7382102;19;20015;-62
2022/01/27 11:48:07;;;;;;;21.85;10.10;;;2.30;11.90;;;;;;7358621;19;20007;-63
2022/01/27 11:50:52;;;;;;;17.60;9.10;;;2.30;12.00;;;;;;7353671;19;20027;-62
2022/01/27 11:53:37;;;;;;;25.80;11.35;;;2.40;11.90;;;;;;7359065;19;20689;-62
2022/01/27 11:56:15;;;;;;;20.02;9.48;;;2.50;11.30;;;;;;7356577;19;20517;-62
2022/01/27 11:58:48;;;;;;;19.75;9.30;;;2.50;11.30;;;;;;7360255;19;20371;-62
2022/01/27 12:01:26;;;;;;;23.60;9.48;;;2.50;11.00;;;;;;7352309;19;20081;-62
2022/01/27 12:04:18;;;;;;;20.40;10.18;;;2.50;11.00;;;;;;7361265;19;20014;-62
2022/01/27 12:07:07;;;;;;;19.13;10.45;;;2.50;10.80;;;;;;7355132;19;20010;-63
2022/01/27 12:09:38;;;;;;;21.63;10.82;;;2.60;11.30;;;;;;7380774;19;20039;-62
2022/01/27 12:12:25;;;;;;;19.35;9.73;;;2.60;10.10;;;;;;7353676;19;20352;-63
2022/01/27 12:15:11;;;;;;;20.77;9.70;;;2.60;10.90;;;;;;7351117;19;20017;-62
2022/01/27 12:17:43;;;;;;;21.23;9.90;;;2.60;11.40;;;;;;7351577;19;20101;-62
2022/01/27 12:20:14;;;;;;;20.30;9.45;;;2.60;11.20;;;;;;7352676;19;20013;-62
2022/01/27 12:23:03;;;;;;;19.13;9.70;;;2.60;11.10;;;;;;7360076;19;20029;-63
2022/01/27 12:25:48;;;;;;;28.52;10.38;;;2.70;10.70;;;;;;7356645;19;20031;-64
2022/01/27 12:28:18;;;;;;;19.33;9.25;;;2.60;9.90;;;;;;7357950;19;20011;-62
2022/01/27 12:30:58;;;;;;;21.27;9.70;;;2.80;10.20;;;;;;7356877;19;20048;-62
2022/01/27 12:33:31;;;;;;;23.13;10.85;;;2.80;9.40;;;;;;7383034;19;20014;-63
2022/01/27 12:36:05;;;;;;;31.50;10.98;;;2.80;9.70;;;;;;7352047;19;20014;-62
2022/01/27 12:38:42;;;;;;;21.13;10.07;;;2.90;9.40;;;;;;7359047;19;20080;-63
2022/01/27 12:41:12;;;;;;;21.90;11.48;;;2.90;9.30;;;;;;7356584;19;20011;-62
2022/01/27 12:43:45;;;;;;;18.15;10.00;;;3.00;9.30;;;;;;7359417;19;20420;-63
2022/01/27 12:46:15;;;;;;;20.47;9.60;;;3.00;9.40;;;;;;7342839;19;20428;-63
2022/01/27 12:48:50;;;;;;;21.33;11.02;;;3.00;9.30;;;;;;7357316;19;20018;-63
2022/01/27 12:51:55;;;;;;;19.05;9.68;;;3.00;8.90;;;;;;7383169;19;20024;-63
2022/01/27 12:54:29;;;;;;;18.65;10.02;;;3.20;9.20;;;;;;7263043;19;2004228;-64
2022/01/27 12:56:59;;;;;;;24.55;12.57;;;3.20;8.80;;;;;;7383305;19;20043;-63
2022/01/27 12:59:33;;;;;;;25.75;11.57;;;3.20;9.10;;;;;;7366116;19;20021;-63
2022/01/27 13:02:05;;;;;;;21.15;9.70;;;3.20;9.10;;;;;;7365346;19;20006;-63
2022/01/27 13:04:40;;;;;;;22.55;10.95;;;3.20;8.50;;;;;;7365853;19;20018;-62
2022/01/27 13:07:10;;;;;;;21.60;10.90;;;3.20;9.00;;;;;;7359305;19;20105;-63
2022/01/27 13:09:40;;;;;;;18.65;9.52;;;3.20;8.60;;;;;;7362791;19;20078;-63
2022/01/27 13:12:17;;;;;;;21.75;10.82;;;3.30;7.90;;;;;;7388135;19;20031;-64
2022/01/27 13:14:59;;;;;;;23.48;10.70;;;3.30;8.70;;;;;;7364531;19;20034;-64
2022/01/27 13:17:35;;;;;;;29.80;11.48;;;3.30;9.00;;;;;;7357633;19;20018;-64
2022/01/27 13:20:20;;;;;;;20.77;10.13;;;3.40;8.80;;;;;;7364147;19;20006;-62
2022/01/27 13:22:54;;;;;;;18.13;10.20;;;3.40;8.50;;;;;;7367441;19;20010;-63
2022/01/27 13:25:25;;;;;;;17.77;9.93;;;3.50;8.10;;;;;;7363945;19;20115;-62
2022/01/27 13:28:06;;;;;;;19.58;9.35;;;3.40;7.90;;;;;;7358893;19;20011;-63
2022/01/27 13:30:38;;;;;;;21.20;10.07;;;3.50;8.00;;;;;;7364121;19;20111;-64
2022/01/27 13:33:10;;;;;;;18.33;10.40;;;3.50;8.00;;;;;;7385891;19;20558;-62